createdAt,value
2018-03-27T00:00:43.707Z,4.20
2018-03-27T00:05:18.080Z,4.10
2018-03-27T00:09:51.396Z,4.10
2018-03-27T00:14:24.638Z,4.20
2018-03-27T00:18:58.007Z,4.20
2018-03-27T00:23:31.498Z,4.40
2018-03-27T00:28:17.710Z,4.50
2018-03-27T00:33:03.829Z,4.60
2018-03-27T00:37:49.111Z,4.50
2018-03-27T00:42:43.014Z,4.60
2018-03-27T00:47:16.293Z,4.50
2018-03-27T00:51:49.677Z,4.60
2018-03-27T00:56:22.949Z,4.60
2018-03-27T01:00:56.280Z,4.60
2018-03-27T01:05:29.682Z,4.60
2018-03-27T01:10:02.909Z,4.40
2018-03-27T01:14:36.363Z,4.50
2018-03-27T01:19:10.413Z,4.30
2018-03-27T01:23:43.735Z,4.20
2018-03-27T01:28:17.046Z,4.10
2018-03-27T01:32:50.426Z,4.10
2018-03-27T01:37:24.431Z,4.00
2018-03-27T01:41:58.306Z,3.90
2018-03-27T01:46:31.610Z,3.90
2018-03-27T01:51:05.129Z,3.90
2018-03-27T01:55:38.406Z,3.90
2018-03-27T02:00:12.648Z,4.10
2018-03-27T02:04:46.081Z,4.00
2018-03-27T02:09:19.561Z,4.00
2018-03-27T02:13:59.164Z,3.60
2018-03-27T02:18:38.596Z,3.50
2018-03-27T02:28:16.627Z,3.80
2018-03-27T02:32:50.762Z,3.50
2018-03-27T02:37:24.029Z,3.50
2018-03-27T02:41:57.440Z,3.50
2018-03-27T02:46:30.816Z,3.50
2018-03-27T02:51:04.197Z,3.40
2018-03-27T02:55:38.355Z,3.60
2018-03-27T03:00:12.335Z,3.50
2018-03-27T03:04:46.567Z,3.90
2018-03-27T03:09:20.021Z,3.80
2018-03-27T03:13:53.400Z,3.90
2018-03-27T03:18:27.573Z,3.90
2018-03-27T03:23:00.941Z,3.90
2018-03-27T03:27:35.673Z,3.90
2018-03-27T03:32:08.957Z,3.90
2018-03-27T03:36:42.322Z,3.90
2018-03-27T03:41:15.585Z,3.90
2018-03-27T03:45:48.869Z,3.70
2018-03-27T03:50:22.640Z,3.70
2018-03-27T03:54:56.868Z,3.80
2018-03-27T03:59:31.613Z,4.00
2018-03-27T04:04:05.743Z,4.00
2018-03-27T04:08:39.762Z,4.00
2018-03-27T04:13:14.118Z,3.90
2018-03-27T04:17:47.390Z,3.90
2018-03-27T04:22:20.748Z,3.90
2018-03-27T04:26:54.749Z,4.00
2018-03-27T04:31:28.780Z,4.10
2018-03-27T04:36:03.002Z,4.10
2018-03-27T04:40:37.163Z,3.90
2018-03-27T04:45:10.458Z,3.80
2018-03-27T04:49:43.955Z,3.80
2018-03-27T04:54:18.696Z,3.80
2018-03-27T04:58:52.823Z,3.90
2018-03-27T05:03:27.552Z,3.90
2018-03-27T05:08:00.975Z,3.80
2018-03-27T05:12:35.031Z,4.00
2018-03-27T05:17:08.413Z,4.00
2018-03-27T05:21:42.543Z,4.10
2018-03-27T05:26:16.533Z,4.10
2018-03-27T05:30:49.979Z,4.00
2018-03-27T05:35:24.019Z,4.10
2018-03-27T05:39:57.302Z,4.00
2018-03-27T05:44:30.543Z,4.20
2018-03-27T05:49:04.430Z,4.10
2018-03-27T05:53:37.781Z,4.20
2018-03-27T05:58:11.167Z,4.20
2018-03-27T06:02:45.217Z,4.40
2018-03-27T06:07:18.522Z,4.40
2018-03-27T06:11:52.437Z,4.40
2018-03-27T06:16:25.836Z,4.40
2018-03-27T06:20:59.986Z,4.40
2018-03-27T06:25:33.303Z,4.40
2018-03-27T06:30:06.601Z,4.50
2018-03-27T06:34:39.840Z,4.60
2018-03-27T06:39:13.106Z,4.80
2018-03-27T06:43:46.509Z,4.90
2018-03-27T06:48:20.501Z,5.20
2018-03-27T06:52:53.983Z,5.10
2018-03-27T06:57:27.868Z,5.20
2018-03-27T07:02:02.062Z,5.30
2018-03-27T07:06:35.531Z,5.20
2018-03-27T07:11:09.608Z,5.30
2018-03-27T07:15:42.952Z,5.40
2018-03-27T07:20:17.109Z,5.50
2018-03-27T07:24:50.598Z,5.50
2018-03-27T07:29:24.610Z,5.50
2018-03-27T07:33:58.936Z,5.60
2018-03-27T07:38:32.770Z,5.50
2018-03-27T07:43:06.821Z,5.70
2018-03-27T07:47:40.210Z,5.60
2018-03-27T07:52:14.317Z,5.90
2018-03-27T07:56:47.879Z,5.90
2018-03-27T08:01:21.264Z,5.80
2018-03-27T08:05:55.416Z,5.90
2018-03-27T08:10:28.804Z,5.80
2018-03-27T08:15:03.335Z,5.80
2018-03-27T08:19:37.546Z,5.80
2018-03-27T08:24:10.944Z,5.80
2018-03-27T08:28:44.536Z,6.00
2018-03-27T08:33:17.805Z,6.20
2018-03-27T08:37:51.834Z,6.40
2018-03-27T08:42:26.676Z,6.40
2018-03-27T08:47:00.806Z,6.70
2018-03-27T08:51:35.083Z,7.10
2018-03-27T08:56:08.389Z,7.00
2018-03-27T09:00:41.862Z,7.40
2018-03-27T09:05:15.721Z,7.70
2018-03-27T09:09:49.010Z,7.60
2018-03-27T09:14:22.295Z,7.90
2018-03-27T09:18:56.346Z,8.60
2018-03-27T09:23:29.839Z,8.50
2018-03-27T09:28:04.083Z,8.90
2018-03-27T09:32:38.152Z,8.80
2018-03-27T09:37:11.860Z,8.90
2018-03-27T09:41:45.230Z,10.80
2018-03-27T09:46:18.529Z,13.20
2018-03-27T09:50:52.588Z,15.10
2018-03-27T09:55:25.883Z,15.00
2018-03-27T09:59:59.383Z,13.60
2018-03-27T10:04:32.898Z,13.60
2018-03-27T10:09:07.161Z,15.30
2018-03-27T10:13:40.593Z,15.20
2018-03-27T10:18:14.191Z,15.30
2018-03-27T10:22:49.593Z,15.20
2018-03-27T10:27:23.710Z,15.80
2018-03-27T10:31:56.984Z,16.20
2018-03-27T10:36:30.886Z,15.80
2018-03-27T10:41:04.402Z,14.10
2018-03-27T10:45:37.832Z,13.30
2018-03-27T10:50:11.340Z,12.40
2018-03-27T10:54:44.789Z,11.80
2018-03-27T10:59:18.244Z,11.30
2018-03-27T11:03:52.517Z,11.20
2018-03-27T11:08:25.880Z,11.20
2018-03-27T11:12:59.914Z,11.70
2018-03-27T11:17:33.329Z,11.70
2018-03-27T11:22:06.733Z,12.10
2018-03-27T11:26:41.877Z,12.10
2018-03-27T11:31:15.931Z,12.40
2018-03-27T11:35:49.199Z,12.30
2018-03-27T11:40:23.198Z,12.80
2018-03-27T11:44:56.583Z,12.80
2018-03-27T11:49:29.819Z,13.10
2018-03-27T11:54:03.101Z,13.00
2018-03-27T11:58:36.652Z,12.80
2018-03-27T12:03:09.886Z,12.60
2018-03-27T12:07:43.913Z,12.00
2018-03-27T12:12:17.930Z,11.90
2018-03-27T12:16:51.966Z,12.60
2018-03-27T12:21:26.676Z,13.20
2018-03-27T12:25:59.944Z,13.20
2018-03-27T12:30:33.175Z,12.90
2018-03-27T12:35:06.751Z,12.10
2018-03-27T12:39:40.024Z,12.00
2018-03-27T12:44:14.080Z,12.20
2018-03-27T12:48:48.082Z,11.90
2018-03-27T12:53:21.412Z,11.90
2018-03-27T12:57:54.738Z,11.50
2018-03-27T13:02:28.045Z,11.30
2018-03-27T13:07:01.312Z,11.20
2018-03-27T13:11:34.820Z,11.40
2018-03-27T13:16:08.230Z,11.50
2018-03-27T13:20:42.936Z,11.40
2018-03-27T13:25:16.312Z,11.30
2018-03-27T13:29:50.489Z,11.00
2018-03-27T13:34:23.789Z,10.90
2018-03-27T13:38:57.065Z,10.80
2018-03-27T13:43:30.473Z,10.50
2018-03-27T13:48:04.544Z,10.20
2018-03-27T13:52:37.929Z,10.10
2018-03-27T13:57:11.210Z,10.20
2018-03-27T14:01:45.388Z,9.90
2018-03-27T14:06:19.378Z,9.90
2018-03-27T14:10:53.429Z,10.20
2018-03-27T14:15:26.697Z,10.10
2018-03-27T14:19:59.988Z,10.10
2018-03-27T14:24:33.555Z,10.20
2018-03-27T14:29:07.420Z,10.10
2018-03-27T14:33:41.478Z,10.00
2018-03-27T14:38:15.555Z,10.00
2018-03-27T14:42:48.900Z,9.90
2018-03-27T14:47:22.952Z,9.70
2018-03-27T14:51:56.972Z,9.70
2018-03-27T14:56:30.988Z,9.50
2018-03-27T15:01:05.396Z,9.40
2018-03-27T15:05:38.680Z,9.30
2018-03-27T15:10:11.966Z,9.30
2018-03-27T15:14:45.228Z,9.20
2018-03-27T15:19:18.483Z,9.10
2018-03-27T15:23:51.750Z,9.10
2018-03-27T15:28:25.000Z,9.10
2018-03-27T15:32:58.279Z,9.20
2018-03-27T15:37:32.338Z,9.10
2018-03-27T15:42:05.624Z,9.10
2018-03-27T15:46:39.752Z,8.90
2018-03-27T15:51:13.798Z,8.80
2018-03-27T15:55:47.696Z,8.70
2018-03-27T16:00:21.733Z,8.60
2018-03-27T16:04:55.755Z,8.50
2018-03-27T16:09:29.806Z,8.40
2018-03-27T16:14:03.057Z,8.40
2018-03-27T16:18:36.329Z,8.40
2018-03-27T16:23:09.571Z,8.40
2018-03-27T16:27:42.881Z,8.10
2018-03-27T16:32:16.235Z,8.00
2018-03-27T16:36:49.983Z,7.90
2018-03-27T16:41:24.173Z,7.80
2018-03-27T16:45:58.318Z,7.70
2018-03-27T16:50:31.710Z,7.60
2018-03-27T16:55:06.407Z,7.60
2018-03-27T16:59:39.661Z,7.60
2018-03-27T17:04:13.685Z,7.60
2018-03-27T17:08:47.718Z,7.60
2018-03-27T17:13:21.765Z,7.60
2018-03-27T17:17:54.987Z,7.60
2018-03-27T17:22:28.256Z,7.60
2018-03-27T17:27:02.275Z,7.50
2018-03-27T17:31:36.507Z,7.50
2018-03-27T17:36:09.828Z,7.50
2018-03-27T17:40:43.865Z,7.40
2018-03-27T17:45:17.171Z,7.30
2018-03-27T17:49:50.435Z,7.30
2018-03-27T17:54:23.997Z,7.10
2018-03-27T17:58:57.206Z,7.10
2018-03-27T18:03:30.474Z,7.00
2018-03-27T18:08:03.745Z,7.10
2018-03-27T18:12:36.991Z,7.00
2018-03-27T18:17:10.422Z,7.10
2018-03-27T18:21:43.754Z,7.00
2018-03-27T18:26:17.019Z,7.00
2018-03-27T18:30:50.245Z,7.00
2018-03-27T18:35:24.782Z,6.90
2018-03-27T18:39:58.812Z,6.80
2018-03-27T18:44:32.793Z,6.80
2018-03-27T18:49:06.063Z,6.80
2018-03-27T18:53:39.322Z,6.90
2018-03-27T18:58:12.657Z,6.90
2018-03-27T19:02:46.687Z,6.80
2018-03-27T19:07:20.723Z,6.90
2018-03-27T19:11:53.952Z,6.80
2018-03-27T19:16:27.308Z,6.80
2018-03-27T19:21:01.314Z,6.90
2018-03-27T19:25:35.400Z,6.80
2018-03-27T19:30:08.938Z,6.80
2018-03-27T19:34:42.248Z,6.80
2018-03-27T19:39:15.494Z,6.80
2018-03-27T19:43:49.535Z,7.00
2018-03-27T19:48:23.905Z,7.00
2018-03-27T19:52:57.234Z,7.00
2018-03-27T19:57:30.522Z,6.90
2018-03-27T20:02:03.869Z,7.00
2018-03-27T20:06:37.731Z,7.00
2018-03-27T20:11:11.047Z,7.10
2018-03-27T20:15:44.320Z,7.10
2018-03-27T20:20:17.822Z,7.10
2018-03-27T20:24:51.108Z,7.10
2018-03-27T20:29:24.403Z,7.10
2018-03-27T20:33:57.781Z,7.10
2018-03-27T20:38:31.056Z,7.20
2018-03-27T20:43:05.124Z,7.40
2018-03-27T20:47:39.367Z,7.30
2018-03-27T20:52:12.780Z,7.30
2018-03-27T20:56:48.088Z,7.30
2018-03-27T21:01:22.696Z,7.40
2018-03-27T21:05:56.087Z,7.30
2018-03-27T21:10:29.368Z,7.40
2018-03-27T21:15:03.409Z,7.60
2018-03-27T21:19:37.256Z,7.50
2018-03-27T21:24:10.639Z,7.60
2018-03-27T21:28:43.946Z,7.60
2018-03-27T21:33:17.973Z,7.70
2018-03-27T21:37:52.869Z,7.60
2018-03-27T21:42:27.070Z,7.60
2018-03-27T21:47:00.913Z,7.60
2018-03-27T21:51:34.275Z,7.60
2018-03-27T21:56:08.382Z,7.80
2018-03-27T22:00:41.853Z,7.70
2018-03-27T22:05:15.127Z,7.70
2018-03-27T22:09:49.449Z,7.80
2018-03-27T22:14:23.472Z,7.90
2018-03-27T22:18:57.312Z,7.80
2018-03-27T22:23:31.335Z,7.80
2018-03-27T22:28:06.012Z,7.80
2018-03-27T22:32:39.293Z,7.80
2018-03-27T22:37:13.202Z,7.90
2018-03-27T22:41:47.207Z,7.90
2018-03-27T22:46:20.459Z,7.90
2018-03-27T22:50:53.738Z,8.00
2018-03-27T22:55:27.874Z,8.10
2018-03-27T23:00:01.911Z,8.10
2018-03-27T23:04:35.136Z,8.10
2018-03-27T23:09:08.427Z,8.20
2018-03-27T23:13:41.746Z,8.10
2018-03-27T23:18:15.007Z,8.20
2018-03-27T23:22:48.852Z,8.20
2018-03-27T23:27:23.118Z,8.20
2018-03-27T23:31:56.364Z,8.20
2018-03-27T23:36:29.643Z,8.30
2018-03-27T23:41:02.961Z,8.30
2018-03-27T23:45:36.647Z,8.30
2018-03-27T23:50:10.097Z,8.30
2018-03-27T23:54:43.638Z,8.40
2018-03-27T23:59:17.273Z,8.40
